Time;durP1;ratioP1;P1;durP2;ratioP2;P2;SDS_P1;SDS_P2;PMS_P1;PMS_P2;Temp;Humidity;BMP_temperature;BMP_pressure;BME280_temperature;BME280_humidity;BME280_pressure;Samples;Min_cycle;Max_cycle;Signal;HPM_P1;HPM_P2
2022/08/16 00:00:25;;;;;;;;;40.25;37.75;;;;;;;;5054389;27;45597;-60
2022/08/16 00:02:51;;;;;;;;;34.00;32.50;;;;;;;;5054405;28;45733;-59
2022/08/16 00:05:17;;;;;;;;;43.00;37.50;;;;;;;;5054238;27;45388;-60
2022/08/16 00:07:42;;;;;;;;;31.75;31.50;;;;;;;;5036273;28;45432;-60
2022/08/16 00:10:08;;;;;;;;;39.75;34.25;;;;;;;;5036294;28;45225;-60
2022/08/16 00:12:34;;;;;;;;;34.75;32.00;;;;;;;;5054304;27;45409;-60
2022/08/16 00:15:00;;;;;;;;;32.25;30.75;;;;;;;;5054263;28;45330;-61
2022/08/16 00:17:26;;;;;;;;;39.25;33.25;;;;;;;;5054275;27;45480;-59
2022/08/16 00:19:52;;;;;;;;;37.00;32.25;;;;;;;;5054356;27;45350;-59
2022/08/16 00:22:17;;;;;;;;;36.50;32.75;;;;;;;;5054020;28;45363;-60
2022/08/16 00:24:43;;;;;;;;;35.50;33.50;;;;;;;;5035888;28;45448;-60
2022/08/16 00:27:08;;;;;;;;;35.00;33.25;;;;;;;;5054382;27;45279;-59
2022/08/16 00:29:33;;;;;;;;;36.00;34.75;;;;;;;;5054103;28;45288;-60
2022/08/16 00:32:00;;;;;;;;;34.50;32.75;;;;;;;;5054078;28;45704;-59
2022/08/16 00:34:25;;;;;;;;;38.25;33.50;;;;;;;;5054144;27;45359;-60
2022/08/16 00:36:50;;;;;;;;;34.00;32.00;;;;;;;;5054099;28;45326;-60
2022/08/16 00:39:16;;;;;;;;;33.25;32.00;;;;;;;;5054266;28;45188;-60
2022/08/16 00:41:42;;;;;;;;;32.00;31.50;;;;;;;;5053779;28;45729;-59
2022/08/16 00:44:10;;;;;;;;;31.25;30.00;;;;;;;;5053843;27;45464;-60
2022/08/16 00:46:43;;;;;;;;;37.75;34.00;;;;;;;;5053953;28;45311;-60
2022/08/16 00:49:10;;;;;;;;;33.00;31.75;;;;;;;;5054012;27;45331;-60
2022/08/16 00:51:35;;;;;;;;;39.25;33.75;;;;;;;;5053746;28;46528;-60
2022/08/16 00:54:01;;;;;;;;;34.00;31.75;;;;;;;;5018936;28;46065;-60
2022/08/16 00:56:28;;;;;;;;;36.50;33.00;;;;;;;;5054032;27;45312;-60
2022/08/16 00:58:54;;;;;;;;;35.25;32.25;;;;;;;;5053883;27;45373;-60
2022/08/16 01:01:19;;;;;;;;;33.50;30.50;;;;;;;;5053479;27;46420;-60
2022/08/16 01:03:46;;;;;;;;;23.25;23.25;;;;;;;;5053569;28;45337;-59
2022/08/16 01:06:12;;;;;;;;;31.50;28.00;;;;;;;;5019044;27;45387;-59
2022/08/16 01:08:39;;;;;;;;;37.50;33.25;;;;;;;;5053721;27;45298;-59
2022/08/16 01:11:05;;;;;;;;;30.75;29.75;;;;;;;;5053397;28;45344;-60
2022/08/16 01:13:31;;;;;;;;;35.00;31.25;;;;;;;;5053330;28;45410;-60
2022/08/16 01:15:59;;;;;;;;;33.00;32.50;;;;;;;;5053845;28;45386;-60
2022/08/16 01:18:28;;;;;;;;;29.75;26.50;;;;;;;;5053536;28;45297;-60
2022/08/16 01:21:01;;;;;;;;;26.75;25.50;;;;;;;;5053551;27;46694;-60
2022/08/16 01:23:33;;;;;;;;;31.75;31.25;;;;;;;;5048052;27;45288;-59
2022/08/16 01:25:59;;;;;;;;;28.25;26.75;;;;;;;;5073465;28;45484;-60
2022/08/16 01:28:25;;;;;;;;;32.75;29.50;;;;;;;;5073492;28;45443;-59
2022/08/16 01:30:54;;;;;;;;;32.25;32.00;;;;;;;;5073463;28;47369;-59
2022/08/16 01:33:19;;;;;;;;;29.75;28.50;;;;;;;;5073726;28;45177;-61
2022/08/16 01:35:44;;;;;;;;;29.00;28.00;;;;;;;;5055433;28;45397;-60
2022/08/16 01:38:30;;;;;;;;;30.50;28.75;;;;;;;;5055568;27;45576;-60
2022/08/16 01:40:57;;;;;;;;;30.50;27.25;;;;;;;;5073477;28;45760;-60
2022/08/16 01:43:22;;;;;;;;;27.00;26.25;;;;;;;;5073191;28;45405;-60
2022/08/16 01:45:51;;;;;;;;;28.00;26.00;;;;;;;;5073394;28;45345;-60
2022/08/16 01:48:16;;;;;;;;;31.75;30.50;;;;;;;;5055160;28;45278;-59
2022/08/16 01:50:43;;;;;;;;;30.75;29.75;;;;;;;;5073014;28;46118;-60
2022/08/16 01:53:09;;;;;;;;;28.50;28.50;;;;;;;;5073354;28;45211;-60
2022/08/16 01:55:34;;;;;;;;;30.75;29.50;;;;;;;;5054998;27;45306;-59
2022/08/16 01:58:00;;;;;;;;;34.75;31.50;;;;;;;;5055267;27;45259;-60
2022/08/16 02:00:26;;;;;;;;;29.50;29.50;;;;;;;;5055084;27;47476;-60
2022/08/16 02:02:51;;;;;;;;;34.25;32.50;;;;;;;;5073244;28;45376;-60
2022/08/16 02:05:16;;;;;;;;;30.00;30.00;;;;;;;;5055135;27;45431;-60
2022/08/16 02:07:42;;;;;;;;;30.00;27.75;;;;;;;;5073096;27;45366;-60
2022/08/16 02:10:08;;;;;;;;;30.50;30.50;;;;;;;;5054784;28;48402;-60
2022/08/16 02:12:34;;;;;;;;;36.25;34.50;;;;;;;;5054909;28;45402;-60
2022/08/16 02:14:59;;;;;;;;;26.25;26.25;;;;;;;;5073001;28;45461;-61
2022/08/16 02:17:24;;;;;;;;;33.50;30.25;;;;;;;;5074207;27;45303;-60
2022/08/16 02:19:50;;;;;;;;;32.75;31.25;;;;;;;;5075935;28;46624;-60
2022/08/16 02:22:17;;;;;;;;;31.25;29.75;;;;;;;;5075699;27;45446;-61
2022/08/16 02:24:43;;;;;;;;;29.50;29.50;;;;;;;;5075926;28;45361;-60
2022/08/16 02:27:08;;;;;;;;;27.00;27.00;;;;;;;;5075794;28;45347;-60
2022/08/16 02:29:34;;;;;;;;;28.00;28.00;;;;;;;;5075784;28;45342;-61
2022/08/16 02:31:59;;;;;;;;;35.50;33.25;;;;;;;;5075958;28;45277;-61
2022/08/16 02:34:24;;;;;;;;;27.25;24.75;;;;;;;;5057612;27;45395;-60
2022/08/16 02:36:50;;;;;;;;;28.00;26.75;;;;;;;;5057637;27;45402;-60
2022/08/16 02:39:16;;;;;;;;;29.00;28.25;;;;;;;;5075757;28;45570;-60
2022/08/16 02:41:42;;;;;;;;;31.25;30.25;;;;;;;;5075676;28;45393;-60
2022/08/16 02:44:12;;;;;;;;;33.50;31.50;;;;;;;;5075677;28;45337;-61
2022/08/16 02:46:37;;;;;;;;;31.50;29.00;;;;;;;;5075842;28;45306;-60
2022/08/16 02:49:03;;;;;;;;;30.25;30.25;;;;;;;;5056951;28;46449;-60
2022/08/16 02:51:28;;;;;;;;;28.00;28.00;;;;;;;;5075480;28;45324;-60
2022/08/16 02:53:54;;;;;;;;;32.00;30.50;;;;;;;;5075776;27;45184;-59
2022/08/16 02:56:19;;;;;;;;;32.75;31.50;;;;;;;;5075535;28;45327;-59
2022/08/16 02:58:46;;;;;;;;;30.50;30.00;;;;;;;;5075334;28;46401;-59
2022/08/16 03:01:12;;;;;;;;;29.50;29.00;;;;;;;;5075554;28;45410;-59
2022/08/16 03:03:37;;;;;;;;;31.25;29.75;;;;;;;;5075467;28;45342;-61
2022/08/16 03:06:02;;;;;;;;;31.50;30.75;;;;;;;;5075436;27;45319;-59
2022/08/16 03:08:28;;;;;;;;;33.00;30.00;;;;;;;;5075278;28;46453;-61
2022/08/16 03:10:53;;;;;;;;;27.25;26.50;;;;;;;;5075456;28;45373;-61
2022/08/16 03:13:19;;;;;;;;;31.00;30.75;;;;;;;;5057305;27;45325;-60
2022/08/16 03:15:44;;;;;;;;;30.75;30.75;;;;;;;;5075409;28;45404;-60
2022/08/16 03:18:10;;;;;;;;;34.50;32.75;;;;;;;;5074998;28;45752;-61
2022/08/16 03:20:35;;;;;;;;;31.25;29.75;;;;;;;;5075487;28;45306;-61
2022/08/16 03:23:01;;;;;;;;;32.00;30.75;;;;;;;;5075056;27;45378;-60
2022/08/16 03:25:27;;;;;;;;;32.50;30.50;;;;;;;;5075181;28;45332;-61
2022/08/16 03:27:52;;;;;;;;;33.00;31.25;;;;;;;;5074398;28;45767;-61
2022/08/16 03:30:20;;;;;;;;;31.75;31.25;;;;;;;;5074485;28;45318;-61
2022/08/16 03:32:46;;;;;;;;;31.75;27.75;;;;;;;;5075334;28;45416;-61
2022/08/16 03:35:11;;;;;;;;;30.00;30.00;;;;;;;;5075115;28;45380;-61
2022/08/16 03:37:36;;;;;;;;;31.25;30.25;;;;;;;;5056630;28;46446;-60
2022/08/16 03:40:05;;;;;;;;;36.75;33.75;;;;;;;;5075009;28;45284;-60
2022/08/16 03:42:30;;;;;;;;;32.25;31.00;;;;;;;;5075036;28;45315;-61
2022/08/16 03:44:56;;;;;;;;;31.25;28.50;;;;;;;;5074754;28;45313;-61
2022/08/16 03:47:21;;;;;;;;;35.25;32.75;;;;;;;;5039793;28;48690;-61
2022/08/16 03:49:47;;;;;;;;;37.00;33.25;;;;;;;;5074799;27;45162;-60
2022/08/16 03:52:12;;;;;;;;;33.00;30.00;;;;;;;;5074998;28;45317;-60
2022/08/16 03:54:37;;;;;;;;;30.00;28.00;;;;;;;;5074890;28;45355;-61
2022/08/16 03:57:03;;;;;;;;;32.50;31.00;;;;;;;;5056492;28;47740;-60
2022/08/16 03:59:28;;;;;;;;;37.25;34.00;;;;;;;;5074626;28;45209;-61
2022/08/16 04:01:54;;;;;;;;;29.75;28.75;;;;;;;;5074956;28;45295;-61
2022/08/16 04:04:19;;;;;;;;;32.25;31.00;;;;;;;;5074630;27;45381;-61
2022/08/16 04:06:45;;;;;;;;;36.75;33.75;;;;;;;;5074611;28;45594;-60
2022/08/16 04:09:11;;;;;;;;;35.25;33.50;;;;;;;;5074733;28;45578;-61
2022/08/16 04:11:36;;;;;;;;;39.00;33.75;;;;;;;;5074752;28;45303;-60
2022/08/16 04:14:02;;;;;;;;;34.00;33.00;;;;;;;;5074598;28;45312;-61
2022/08/16 04:16:27;;;;;;;;;35.50;33.00;;;;;;;;5074533;27;45583;-60
2022/08/16 04:18:53;;;;;;;;;38.00;34.00;;;;;;;;5074479;28;45360;-61
2022/08/16 04:21:18;;;;;;;;;37.00;32.75;;;;;;;;5074767;28;45386;-60
2022/08/16 04:23:43;;;;;;;;;32.50;29.75;;;;;;;;5056211;27;45350;-60
2022/08/16 04:26:08;;;;;;;;;34.50;31.75;;;;;;;;5055683;27;47734;-60
2022/08/16 04:28:34;;;;;;;;;35.25;33.25;;;;;;;;5056344;27;45414;-60
2022/08/16 04:30:59;;;;;;;;;35.00;32.25;;;;;;;;5074629;28;45480;-60
2022/08/16 04:33:24;;;;;;;;;35.00;32.75;;;;;;;;5074481;28;45313;-60
2022/08/16 04:35:50;;;;;;;;;33.50;31.50;;;;;;;;5074206;28;47439;-60
2022/08/16 04:38:15;;;;;;;;;37.50;34.00;;;;;;;;5074015;28;45376;-60
2022/08/16 04:40:40;;;;;;;;;31.50;29.00;;;;;;;;5055858;27;45503;-59
2022/08/16 04:43:06;;;;;;;;;34.00;31.25;;;;;;;;5056149;28;45553;-60
2022/08/16 04:45:31;;;;;;;;;32.50;31.75;;;;;;;;5074047;28;45335;-59
2022/08/16 04:47:57;;;;;;;;;34.50;32.75;;;;;;;;5055992;27;45362;-59
2022/08/16 04:50:25;;;;;;;;;35.00;31.25;;;;;;;;5056299;27;45498;-59
2022/08/16 04:52:52;;;;;;;;;45.25;37.75;;;;;;;;5074050;28;45394;-60
2022/08/16 04:55:19;;;;;;;;;32.00;30.75;;;;;;;;5073598;28;46501;-60
2022/08/16 04:57:45;;;;;;;;;33.25;30.50;;;;;;;;5055611;28;46995;-60
2022/08/16 05:00:13;;;;;;;;;33.75;32.00;;;;;;;;5074083;28;45409;-60
2022/08/16 05:02:39;;;;;;;;;37.75;34.25;;;;;;;;5074264;28;45459;-60
2022/08/16 05:05:04;;;;;;;;;34.00;32.25;;;;;;;;5055573;27;47806;-60
2022/08/16 05:07:29;;;;;;;;;37.25;33.25;;;;;;;;5073749;28;45168;-60
2022/08/16 05:09:55;;;;;;;;;29.25;29.00;;;;;;;;5073965;27;45350;-60
2022/08/16 05:12:20;;;;;;;;;32.75;30.50;;;;;;;;5073801;27;45351;-60
2022/08/16 05:14:45;;;;;;;;;38.25;32.00;;;;;;;;5074051;27;46264;-60
2022/08/16 05:17:10;;;;;;;;;29.75;28.50;;;;;;;;5074109;27;45775;-61
2022/08/16 05:19:35;;;;;;;;;37.75;33.25;;;;;;;;5073766;27;45498;-60
2022/08/16 05:22:01;;;;;;;;;41.00;35.50;;;;;;;;5073491;27;45309;-60
2022/08/16 05:24:26;;;;;;;;;32.50;30.50;;;;;;;;5073336;27;45391;-61
2022/08/16 05:26:51;;;;;;;;;29.00;29.00;;;;;;;;5073151;27;45374;-60
2022/08/16 05:29:16;;;;;;;;;35.25;32.50;;;;;;;;5073195;27;45402;-61
2022/08/16 05:31:41;;;;;;;;;31.00;29.75;;;;;;;;5073135;27;45274;-61
2022/08/16 05:34:06;;;;;;;;;32.50;32.25;;;;;;;;5073367;28;46488;-60
2022/08/16 05:36:33;;;;;;;;;34.50;33.00;;;;;;;;5073507;27;45373;-61
2022/08/16 05:38:58;;;;;;;;;27.75;27.75;;;;;;;;5073507;28;45367;-60
2022/08/16 05:41:23;;;;;;;;;29.50;29.50;;;;;;;;5055219;28;45498;-60
2022/08/16 05:43:49;;;;;;;;;32.00;30.75;;;;;;;;5073500;27;45902;-60
2022/08/16 05:46:18;;;;;;;;;30.75;30.00;;;;;;;;5073295;27;45371;-60
2022/08/16 05:48:43;;;;;;;;;27.75;26.50;;;;;;;;5073241;28;45429;-60
2022/08/16 05:51:09;;;;;;;;;26.50;25.25;;;;;;;;5054449;28;45224;-60
2022/08/16 05:53:34;;;;;;;;;27.75;23.50;;;;;;;;5054741;28;47784;-60
2022/08/16 05:56:00;;;;;;;;;33.75;29.50;;;;;;;;5055223;27;45332;-60
2022/08/16 05:58:25;;;;;;;;;26.00;25.00;;;;;;;;5073493;27;45350;-61
2022/08/16 06:00:50;;;;;;;;;25.00;24.25;;;;;;;;5073490;27;45284;-60
2022/08/16 06:03:15;;;;;;;;;28.50;28.00;;;;;;;;5073145;28;45586;-59
2022/08/16 06:05:40;;;;;;;;;23.00;22.25;;;;;;;;5073100;27;45602;-60
2022/08/16 06:08:06;;;;;;;;;23.25;21.25;;;;;;;;5055090;27;45339;-60
2022/08/16 06:10:31;;;;;;;;;21.00;21.00;;;;;;;;5073236;27;45405;-60
2022/08/16 06:12:56;;;;;;;;;25.75;24.75;;;;;;;;5055199;27;48437;-59
2022/08/16 06:15:21;;;;;;;;;22.50;20.75;;;;;;;;5073090;27;45375;-60
2022/08/16 06:17:47;;;;;;;;;25.75;24.50;;;;;;;;5055232;27;45308;-60
2022/08/16 06:20:15;;;;;;;;;26.25;26.25;;;;;;;;5072904;28;45284;-60
2022/08/16 06:22:40;;;;;;;;;19.25;19.25;;;;;;;;5072686;28;46481;-61
2022/08/16 06:25:05;;;;;;;;;20.50;20.50;;;;;;;;5072898;28;45322;-61
2022/08/16 06:27:31;;;;;;;;;16.50;15.25;;;;;;;;5054529;28;45292;-60
2022/08/16 06:29:56;;;;;;;;;19.25;17.25;;;;;;;;5054798;27;45421;-60
2022/08/16 06:32:21;;;;;;;;;16.00;16.00;;;;;;;;5054596;27;47754;-60
2022/08/16 06:34:46;;;;;;;;;21.75;20.00;;;;;;;;5054867;27;45433;-61
2022/08/16 06:37:11;;;;;;;;;18.00;17.00;;;;;;;;5072979;27;45393;-61
2022/08/16 06:39:38;;;;;;;;;19.00;18.00;;;;;;;;5054344;28;45256;-61
2022/08/16 06:42:03;;;;;;;;;17.25;16.25;;;;;;;;5072601;28;45685;-61
2022/08/16 06:44:28;;;;;;;;;18.50;18.50;;;;;;;;5072427;28;45250;-61
2022/08/16 06:46:54;;;;;;;;;21.50;21.50;;;;;;;;5059596;27;47317;-63
2022/08/16 06:49:19;;;;;;;;;18.75;17.25;;;;;;;;5055631;28;45497;-62
2022/08/16 06:51:44;;;;;;;;;21.00;18.50;;;;;;;;5063654;27;45531;-62
2022/08/16 06:54:09;;;;;;;;;21.00;19.00;;;;;;;;5053495;28;45317;-61
2022/08/16 06:56:35;;;;;;;;;18.50;18.50;;;;;;;;5072441;28;45326;-62
2022/08/16 06:59:01;;;;;;;;;22.00;22.00;;;;;;;;5072200;28;45392;-62
2022/08/16 07:01:26;;;;;;;;;17.00;15.50;;;;;;;;5072153;28;45781;-62
2022/08/16 07:03:51;;;;;;;;;17.75;16.25;;;;;;;;5074091;28;45420;-62
2022/08/16 07:06:20;;;;;;;;;15.50;15.50;;;;;;;;5075544;28;45496;-61
2022/08/16 07:08:45;;;;;;;;;18.25;15.50;;;;;;;;5075490;28;45489;-62
2022/08/16 07:11:11;;;;;;;;;16.75;16.00;;;;;;;;5075378;28;46531;-62
2022/08/16 07:13:36;;;;;;;;;15.25;15.25;;;;;;;;5075340;28;45354;-61
2022/08/16 07:16:02;;;;;;;;;15.50;14.50;;;;;;;;5057107;28;45429;-62
2022/08/16 07:18:27;;;;;;;;;16.50;16.50;;;;;;;;5075639;28;45470;-61
2022/08/16 07:20:52;;;;;;;;;17.75;17.75;;;;;;;;5075175;28;46414;-60
2022/08/16 07:23:18;;;;;;;;;17.50;16.00;;;;;;;;5075108;28;45329;-61
2022/08/16 07:25:43;;;;;;;;;17.75;17.50;;;;;;;;5075277;28;45464;-61
2022/08/16 07:28:10;;;;;;;;;16.50;16.50;;;;;;;;5057032;27;45936;-61
2022/08/16 07:30:38;;;;;;;;;14.75;14.75;;;;;;;;5074981;28;47885;-60
2022/08/16 07:33:04;;;;;;;;;15.00;14.25;;;;;;;;5075283;28;45330;-61
2022/08/16 07:35:30;;;;;;;;;18.50;15.00;;;;;;;;5057094;28;45249;-61
2022/08/16 07:37:56;;;;;;;;;18.75;16.75;;;;;;;;5075101;27;45223;-61
2022/08/16 07:40:21;;;;;;;;;13.75;13.75;;;;;;;;5056664;27;48420;-60
2022/08/16 07:42:46;;;;;;;;;18.75;18.75;;;;;;;;5075063;28;45254;-60
2022/08/16 07:45:12;;;;;;;;;17.75;16.25;;;;;;;;5075176;27;45203;-61
2022/08/16 07:47:37;;;;;;;;;19.00;18.75;;;;;;;;5056863;28;45371;-61
2022/08/16 07:50:03;;;;;;;;;15.50;15.50;;;;;;;;5074725;28;47527;-61
2022/08/16 07:52:28;;;;;;;;;16.00;16.00;;;;;;;;5075099;27;45310;-61
2022/08/16 07:54:53;;;;;;;;;15.00;14.75;;;;;;;;5056714;28;45250;-62
2022/08/16 07:57:18;;;;;;;;;17.00;17.00;;;;;;;;5074933;27;45252;-61
2022/08/16 07:59:44;;;;;;;;;18.00;17.00;;;;;;;;5074175;27;45360;-61
2022/08/16 08:02:13;;;;;;;;;15.50;15.50;;;;;;;;5074788;28;45273;-61
2022/08/16 08:04:39;;;;;;;;;13.50;13.50;;;;;;;;5074962;28;45447;-61
2022/08/16 08:07:04;;;;;;;;;14.75;14.75;;;;;;;;5074696;28;45439;-61
2022/08/16 08:09:29;;;;;;;;;16.00;15.00;;;;;;;;5074391;28;47344;-61
2022/08/16 08:11:54;;;;;;;;;15.00;13.75;;;;;;;;5074518;27;45463;-62
2022/08/16 08:14:20;;;;;;;;;13.25;13.25;;;;;;;;5056080;27;45362;-61
2022/08/16 08:16:45;;;;;;;;;14.50;12.25;;;;;;;;5074472;28;45356;-61
2022/08/16 08:19:11;;;;;;;;;14.00;13.00;;;;;;;;5074558;28;45787;-61
2022/08/16 08:21:37;;;;;;;;;12.75;12.75;;;;;;;;5074354;28;45413;-61
2022/08/16 08:24:02;;;;;;;;;14.75;14.75;;;;;;;;5074142;28;45377;-60
2022/08/16 08:26:28;;;;;;;;;14.25;14.25;;;;;;;;5056324;27;45386;-62
2022/08/16 08:28:54;;;;;;;;;15.00;13.50;;;;;;;;5074139;28;47228;-60
2022/08/16 08:31:19;;;;;;;;;13.50;11.50;;;;;;;;5074340;28;45399;-61
2022/08/16 08:33:44;;;;;;;;;17.25;17.25;;;;;;;;5074548;27;45490;-62
2022/08/16 08:36:14;;;;;;;;;17.25;15.25;;;;;;;;5074466;27;45321;-61
2022/08/16 08:38:40;;;;;;;;;17.00;14.25;;;;;;;;5056023;28;47473;-61
2022/08/16 08:41:07;;;;;;;;;21.50;16.00;;;;;;;;5056341;27;45374;-62
2022/08/16 08:43:33;;;;;;;;;15.75;13.25;;;;;;;;5074425;28;45374;-61
2022/08/16 08:45:58;;;;;;;;;16.00;15.50;;;;;;;;5074164;28;45388;-61
2022/08/16 08:48:24;;;;;;;;;14.00;14.00;;;;;;;;5073923;28;46860;-61
2022/08/16 08:50:49;;;;;;;;;15.25;13.75;;;;;;;;5074006;28;45414;-61
2022/08/16 08:53:15;;;;;;;;;15.50;13.50;;;;;;;;5074402;27;45345;-61
2022/08/16 08:55:41;;;;;;;;;14.25;13.25;;;;;;;;5074295;28;45426;-60
2022/08/16 08:58:06;;;;;;;;;13.50;11.75;;;;;;;;5074003;28;47315;-61
2022/08/16 09:00:31;;;;;;;;;16.00;14.50;;;;;;;;5073807;27;45396;-60
2022/08/16 09:02:56;;;;;;;;;15.25;12.25;;;;;;;;5074056;28;45365;-60
2022/08/16 09:05:24;;;;;;;;;18.25;15.25;;;;;;;;5055837;27;45408;-61
2022/08/16 09:07:50;;;;;;;;;14.75;13.75;;;;;;;;5073797;28;45778;-61
2022/08/16 09:10:15;;;;;;;;;15.75;14.50;;;;;;;;5055693;27;46319;-61
2022/08/16 09:12:40;;;;;;;;;13.75;11.50;;;;;;;;5074093;27;45273;-61
2022/08/16 09:15:07;;;;;;;;;14.25;13.50;;;;;;;;5074044;28;45384;-61
2022/08/16 09:17:32;;;;;;;;;11.75;11.75;;;;;;;;5074860;28;46637;-61
2022/08/16 09:19:57;;;;;;;;;15.00;13.75;;;;;;;;5074015;28;45271;-61
2022/08/16 09:22:24;;;;;;;;;15.00;13.75;;;;;;;;5055494;28;45367;-60
2022/08/16 09:24:50;;;;;;;;;14.50;13.25;;;;;;;;5073811;28;45377;-61
2022/08/16 09:27:15;;;;;;;;;13.50;13.50;;;;;;;;5073402;28;46395;-61
2022/08/16 09:29:41;;;;;;;;;11.25;10.25;;;;;;;;5073763;28;45317;-61
2022/08/16 09:32:06;;;;;;;;;12.25;12.25;;;;;;;;5073689;28;45340;-60
2022/08/16 09:34:32;;;;;;;;;11.00;11.00;;;;;;;;5073804;28;45357;-60
2022/08/16 09:36:57;;;;;;;;;11.25;11.25;;;;;;;;5073609;28;46103;-61
2022/08/16 09:39:26;;;;;;;;;12.00;11.00;;;;;;;;5073596;28;45446;-61
2022/08/16 09:41:55;;;;;;;;;12.75;11.50;;;;;;;;5073754;28;45432;-61
2022/08/16 09:44:25;;;;;;;;;10.75;10.75;;;;;;;;5073606;28;45339;-61
2022/08/16 09:46:51;;;;;;;;;11.75;10.25;;;;;;;;5055145;28;46692;-61
2022/08/16 09:49:16;;;;;;;;;10.50;10.50;;;;;;;;5055168;28;46376;-62
2022/08/16 09:51:41;;;;;;;;;11.25;11.00;;;;;;;;5073435;28;45314;-61
2022/08/16 09:54:09;;;;;;;;;8.25;8.25;;;;;;;;5055231;27;45400;-62
2022/08/16 09:56:34;;;;;;;;;12.75;12.75;;;;;;;;5073333;28;46344;-61
2022/08/16 09:59:01;;;;;;;;;11.75;10.75;;;;;;;;5073292;28;45283;-61
2022/08/16 10:01:26;;;;;;;;;11.50;11.50;;;;;;;;5073514;28;45579;-60
2022/08/16 10:03:51;;;;;;;;;12.25;11.75;;;;;;;;5055046;28;45430;-60
2022/08/16 10:06:19;;;;;;;;;9.50;9.50;;;;;;;;5073023;28;46376;-61
2022/08/16 10:08:44;;;;;;;;;12.25;11.00;;;;;;;;5054894;28;45481;-61
2022/08/16 10:13:54;;;;;;;;;10.00;10.00;;;;;;;;5072929;28;45296;-60
2022/08/16 10:16:20;;;;;;;;;12.50;10.75;;;;;;;;5072385;28;46324;-61
2022/08/16 10:18:45;;;;;;;;;12.75;11.50;;;;;;;;5072954;28;45232;-61
2022/08/16 10:21:10;;;;;;;;;13.50;11.75;;;;;;;;5073204;27;45312;-62
2022/08/16 10:23:35;;;;;;;;;12.25;12.25;;;;;;;;5072995;28;45370;-60
2022/08/16 10:26:01;;;;;;;;;11.00;11.00;;;;;;;;5072751;27;45351;-61
2022/08/16 10:28:27;;;;;;;;;11.75;10.50;;;;;;;;5072910;28;45245;-61
2022/08/16 10:30:52;;;;;;;;;10.00;10.00;;;;;;;;5072977;28;45210;-60
2022/08/16 10:33:17;;;;;;;;;6.00;6.00;;;;;;;;5072987;27;45241;-61
2022/08/16 10:35:43;;;;;;;;;9.00;9.00;;;;;;;;5072707;28;45852;-61
2022/08/16 10:38:09;;;;;;;;;13.00;12.00;;;;;;;;5073701;28;45301;-60
2022/08/16 10:40:34;;;;;;;;;10.25;10.25;;;;;;;;5057716;28;45312;-60
2022/08/16 10:43:00;;;;;;;;;9.25;9.25;;;;;;;;5076049;28;45319;-61
2022/08/16 10:45:26;;;;;;;;;11.25;11.25;;;;;;;;5075646;28;45587;-60
2022/08/16 10:47:52;;;;;;;;;10.00;10.00;;;;;;;;5075950;28;45403;-61
2022/08/16 10:50:17;;;;;;;;;10.50;10.00;;;;;;;;5053259;28;45410;-61
2022/08/16 10:52:42;;;;;;;;;9.75;8.00;;;;;;;;5054977;28;45407;-60
2022/08/16 10:55:10;;;;;;;;;12.00;11.00;;;;;;;;5054540;28;45661;-60
2022/08/16 10:57:35;;;;;;;;;16.75;12.00;;;;;;;;5054897;28;45439;-59
2022/08/16 11:00:03;;;;;;;;;9.25;9.00;;;;;;;;5038205;28;45382;-60
2022/08/16 11:02:28;;;;;;;;;13.25;13.25;;;;;;;;5036960;28;45302;-60
2022/08/16 11:04:54;;;;;;;;;12.75;12.00;;;;;;;;5054978;28;45769;-61
2022/08/16 11:07:19;;;;;;;;;11.00;11.00;;;;;;;;5055338;28;45326;-61
2022/08/16 11:09:44;;;;;;;;;12.00;10.50;;;;;;;;5055260;28;45248;-61
2022/08/16 11:12:11;;;;;;;;;11.25;11.00;;;;;;;;5055353;28;45146;-60
2022/08/16 11:14:36;;;;;;;;;12.00;12.00;;;;;;;;5055146;28;46451;-60
2022/08/16 11:17:04;;;;;;;;;11.25;11.25;;;;;;;;5055054;28;45358;-60
2022/08/16 11:19:29;;;;;;;;;13.50;12.50;;;;;;;;5055248;28;45274;-61
2022/08/16 11:21:55;;;;;;;;;13.00;11.25;;;;;;;;5054936;27;45389;-61
2022/08/16 11:24:21;;;;;;;;;14.75;14.75;;;;;;;;5055030;28;45256;-60
2022/08/16 11:26:46;;;;;;;;;13.00;11.50;;;;;;;;5061131;28;45318;-60
2022/08/16 11:29:11;;;;;;;;;12.75;12.25;;;;;;;;5075355;28;45242;-60
2022/08/16 11:31:37;;;;;;;;;12.25;11.50;;;;;;;;5075212;28;45246;-61
2022/08/16 11:34:02;;;;;;;;;14.25;12.00;;;;;;;;5075118;28;46577;-61
2022/08/16 11:36:28;;;;;;;;;9.00;9.00;;;;;;;;5056928;27;45915;-60
2022/08/16 11:38:53;;;;;;;;;12.50;12.50;;;;;;;;5075359;28;45242;-61
2022/08/16 11:41:18;;;;;;;;;10.50;10.50;;;;;;;;5057157;28;45558;-63
2022/08/16 11:43:45;;;;;;;;;13.00;13.00;;;;;;;;5074778;28;46152;-60
2022/08/16 11:46:12;;;;;;;;;14.75;12.75;;;;;;;;5075053;28;45337;-60
2022/08/16 11:48:37;;;;;;;;;11.50;11.50;;;;;;;;5074721;28;45336;-61
2022/08/16 11:51:03;;;;;;;;;13.25;13.25;;;;;;;;5074083;27;45488;-60
2022/08/16 11:53:31;;;;;;;;;14.25;14.25;;;;;;;;5074782;28;46186;-61
2022/08/16 11:55:56;;;;;;;;;10.75;10.75;;;;;;;;5057057;27;45438;-60
2022/08/16 11:58:23;;;;;;;;;15.25;12.00;;;;;;;;5056788;28;45281;-61
2022/08/16 12:00:48;;;;;;;;;10.00;10.00;;;;;;;;5075071;28;45301;-61
2022/08/16 12:03:14;;;;;;;;;13.50;13.00;;;;;;;;5074762;28;45779;-61
2022/08/16 12:05:40;;;;;;;;;15.25;12.50;;;;;;;;5074680;28;46114;-61
2022/08/16 12:08:06;;;;;;;;;17.75;13.50;;;;;;;;5056754;27;45257;-62
2022/08/16 12:10:33;;;;;;;;;15.00;14.00;;;;;;;;5074848;28;45404;-61
2022/08/16 12:12:58;;;;;;;;;9.75;9.75;;;;;;;;5074609;28;46221;-60
2022/08/16 12:15:25;;;;;;;;;13.75;13.75;;;;;;;;5056442;28;45447;-61
2022/08/16 12:17:50;;;;;;;;;10.25;10.25;;;;;;;;5074872;28;45262;-61
2022/08/16 12:20:18;;;;;;;;;13.00;13.00;;;;;;;;5074670;28;45347;-61
2022/08/16 12:22:43;;;;;;;;;16.00;15.00;;;;;;;;5074342;28;46275;-62
2022/08/16 12:25:11;;;;;;;;;8.50;8.50;;;;;;;;5074386;28;45354;-61
2022/08/16 12:27:37;;;;;;;;;15.75;13.25;;;;;;;;5056076;28;45319;-61
2022/08/16 12:30:03;;;;;;;;;14.00;12.00;;;;;;;;5056426;28;45423;-62
2022/08/16 12:32:28;;;;;;;;;15.00;14.25;;;;;;;;5074443;28;45573;-61
2022/08/16 12:34:53;;;;;;;;;12.00;12.00;;;;;;;;5074446;28;45417;-62
2022/08/16 12:37:19;;;;;;;;;12.75;12.75;;;;;;;;5074832;28;45573;-61
2022/08/16 12:39:44;;;;;;;;;13.50;13.50;;;;;;;;5074474;28;45467;-62
2022/08/16 12:42:10;;;;;;;;;13.50;13.50;;;;;;;;5056039;27;46283;-61
2022/08/16 12:44:35;;;;;;;;;13.75;13.75;;;;;;;;5074886;28;45367;-61
2022/08/16 12:49:47;;;;;;;;;16.75;15.75;;;;;;;;5074292;28;45669;-61
2022/08/16 12:52:12;;;;;;;;;11.50;11.50;;;;;;;;5073733;28;46577;-61
2022/08/16 12:54:38;;;;;;;;;12.00;12.00;;;;;;;;5055978;27;45426;-61
2022/08/16 12:57:04;;;;;;;;;14.00;14.00;;;;;;;;5074226;28;45553;-61
2022/08/16 12:59:29;;;;;;;;;16.25;14.00;;;;;;;;5074190;28;45483;-61
2022/08/16 13:01:58;;;;;;;;;13.75;13.75;;;;;;;;5055269;27;47376;-61
2022/08/16 13:04:23;;;;;;;;;12.25;12.25;;;;;;;;5073897;28;45304;-61
2022/08/16 13:06:48;;;;;;;;;15.25;15.25;;;;;;;;5074156;27;45274;-61
2022/08/16 13:09:20;;;;;;;;;14.75;13.50;;;;;;;;5074447;28;45383;-61
2022/08/16 13:11:50;;;;;;;;;12.50;12.50;;;;;;;;5073959;28;46561;-62
2022/08/16 13:14:16;;;;;;;;;12.50;12.50;;;;;;;;5073890;28;45367;-61
2022/08/16 13:16:41;;;;;;;;;15.75;14.75;;;;;;;;5055864;27;45385;-60
2022/08/16 13:19:06;;;;;;;;;15.00;15.00;;;;;;;;5074253;27;45284;-61
2022/08/16 13:21:31;;;;;;;;;14.00;10.75;;;;;;;;5055707;27;47301;-63
2022/08/16 13:23:57;;;;;;;;;10.50;10.50;;;;;;;;5073884;27;45847;-61
2022/08/16 13:26:23;;;;;;;;;13.75;13.75;;;;;;;;5073663;28;45395;-61
2022/08/16 13:28:48;;;;;;;;;17.25;17.25;;;;;;;;5073855;28;45299;-61
2022/08/16 13:31:14;;;;;;;;;13.75;12.50;;;;;;;;5055354;28;48624;-61
2022/08/16 13:33:40;;;;;;;;;13.50;13.50;;;;;;;;5073821;28;45338;-61
2022/08/16 13:36:06;;;;;;;;;12.75;12.75;;;;;;;;5073760;28;45249;-62
2022/08/16 13:38:32;;;;;;;;;12.00;12.00;;;;;;;;5073930;28;45401;-61
2022/08/16 13:40:57;;;;;;;;;9.50;9.50;;;;;;;;5073439;28;45839;-61
2022/08/16 13:43:26;;;;;;;;;14.50;13.50;;;;;;;;5073267;28;45591;-61
2022/08/16 13:45:51;;;;;;;;;11.75;10.50;;;;;;;;5055449;28;45362;-61
2022/08/16 13:48:17;;;;;;;;;11.75;11.75;;;;;;;;5073369;28;45267;-61
2022/08/16 13:50:43;;;;;;;;;14.75;13.50;;;;;;;;5055273;27;47486;-60
2022/08/16 13:53:08;;;;;;;;;13.75;13.75;;;;;;;;5055183;28;45969;-61
2022/08/16 13:55:33;;;;;;;;;17.25;16.25;;;;;;;;5073633;27;45120;-61
2022/08/16 13:57:58;;;;;;;;;13.75;13.50;;;;;;;;5073625;28;45285;-61
2022/08/16 14:00:24;;;;;;;;;12.50;12.50;;;;;;;;5073404;27;45316;-61
2022/08/16 14:02:49;;;;;;;;;14.00;14.00;;;;;;;;5073380;28;45443;-60
2022/08/16 14:05:15;;;;;;;;;15.75;15.75;;;;;;;;5055169;27;45409;-61
2022/08/16 14:07:40;;;;;;;;;14.50;14.50;;;;;;;;5073450;28;45344;-61
2022/08/16 14:10:06;;;;;;;;;15.00;14.00;;;;;;;;5073218;28;45740;-60
2022/08/16 14:12:32;;;;;;;;;14.50;14.50;;;;;;;;5072148;27;45428;-62
2022/08/16 14:14:58;;;;;;;;;15.00;14.75;;;;;;;;5054932;28;45469;-61